Time;durP1;ratioP1;P1;durP2;ratioP2;P2;SDS_P1;SDS_P2;PMS_P1;PMS_P2;Temp;Humidity;BMP_temperature;BMP_pressure;BME280_temperature;BME280_humidity;BME280_pressure;Samples;Min_cycle;Max_cycle;Signal;HPM_P1;HPM_P2
2022/09/08 00:00:33;;;;;;;5.03;2.20;;;;;;;;;;5027564;28;20045;-66
2022/09/08 00:03:04;;;;;;;5.28;2.22;;;;;;;;;;5027108;28;20029;-66
2022/09/08 00:05:33;;;;;;;5.40;2.28;;;;;;;;;;5028010;28;20108;-66
2022/09/08 00:07:59;;;;;;;7.75;2.10;;;;;;;;;;5031108;28;20039;-67
2022/09/08 00:10:25;;;;;;;2.65;1.48;;;;;;;;;;5030886;28;20421;-66
2022/09/08 00:12:51;;;;;;;3.22;1.55;;;;;;;;;;5031214;28;20542;-66
2022/09/08 00:15:17;;;;;;;6.25;1.70;;;;;;;;;;5030438;28;20041;-66
2022/09/08 00:17:42;;;;;;;4.13;1.67;;;;;;;;;;5031440;28;20044;-67
2022/09/08 00:20:09;;;;;;;7.57;2.00;;;;;;;;;;5025248;28;20066;-67
2022/09/08 00:22:35;;;;;;;3.40;1.67;;;;;;;;;;5024220;28;20044;-66
2022/09/08 00:25:00;;;;;;;3.38;1.63;;;;;;;;;;5011724;28;20045;-66
2022/09/08 00:27:25;;;;;;;5.40;1.40;;;;;;;;;;5030185;28;20044;-66
2022/09/08 00:29:51;;;;;;;4.57;1.77;;;;;;;;;;5028589;28;20029;-67
2022/09/08 00:32:19;;;;;;;4.07;1.65;;;;;;;;;;5030816;28;20395;-67
2022/09/08 00:34:44;;;;;;;4.82;1.77;;;;;;;;;;5030907;28;20091;-67
2022/09/08 00:37:10;;;;;;;3.08;1.70;;;;;;;;;;5012019;28;20738;-66
2022/09/08 00:39:35;;;;;;;3.65;1.92;;;;;;;;;;5010467;28;20025;-67
2022/09/08 00:42:00;;;;;;;3.92;1.80;;;;;;;;;;5010538;28;20037;-66
2022/09/08 00:44:50;;;;;;;5.95;1.65;;;;;;;;;;5011361;28;20120;-67
2022/09/08 00:47:28;;;;;;;3.80;1.63;;;;;;;;;;5009866;28;20041;-67
2022/09/08 00:50:07;;;;;;;3.53;1.80;;;;;;;;;;5010245;28;20073;-67
2022/09/08 00:52:44;;;;;;;3.00;1.70;;;;;;;;;;5010590;28;20034;-66
2022/09/08 00:55:10;;;;;;;2.45;1.45;;;;;;;;;;5020492;28;20068;-67
2022/09/08 00:57:36;;;;;;;4.32;1.55;;;;;;;;;;5029912;28;20079;-66
2022/09/08 01:00:04;;;;;;;2.85;1.50;;;;;;;;;;5029270;28;20029;-67
2022/09/08 01:02:30;;;;;;;3.40;1.42;;;;;;;;;;5030280;28;20033;-66
2022/09/08 01:05:09;;;;;;;4.95;1.52;;;;;;;;;;5028972;28;20029;-67
2022/09/08 01:14:09;;;;;;;5.88;1.67;;;;;;;;;;5024325;28;20060;-66
2022/09/08 01:16:42;;;;;;;5.47;1.60;;;;;;;;;;5049619;28;20122;-66
2022/09/08 01:19:30;;;;;;;4.15;1.60;;;;;;;;;;5049869;28;20477;-66
2022/09/08 01:22:26;;;;;;;2.80;1.60;;;;;;;;;;5050185;28;20040;-66
2022/09/08 01:25:12;;;;;;;4.13;2.00;;;;;;;;;;5047885;28;20060;-66
2022/09/08 01:27:39;;;;;;;3.88;1.60;;;;;;;;;;5045521;28;20417;-66
2022/09/08 01:30:07;;;;;;;3.08;1.70;;;;;;;;;;5047417;28;20039;-66
2022/09/08 01:32:37;;;;;;;2.88;1.90;;;;;;;;;;5050269;28;20398;-66
2022/09/08 01:35:03;;;;;;;3.53;1.80;;;;;;;;;;5047918;28;20095;-66
2022/09/08 01:37:28;;;;;;;3.08;1.63;;;;;;;;;;5029348;28;20059;-66
2022/09/08 01:39:53;;;;;;;3.38;1.80;;;;;;;;;;5043152;28;20547;-66
2022/09/08 01:42:19;;;;;;;2.55;1.70;;;;;;;;;;5047694;28;20051;-66
2022/09/08 01:44:44;;;;;;;2.67;1.80;;;;;;;;;;5048420;28;20032;-66
2022/09/08 01:47:11;;;;;;;4.85;2.08;;;;;;;;;;5047824;28;20045;-67
2022/09/08 01:49:36;;;;;;;3.35;1.58;;;;;;;;;;5048031;28;20447;-66
2022/09/08 01:52:02;;;;;;;6.15;2.05;;;;;;;;;;5030345;28;20049;-66
2022/09/08 01:54:27;;;;;;;5.43;1.90;;;;;;;;;;5047018;28;20028;-66
2022/09/08 01:56:54;;;;;;;4.53;1.98;;;;;;;;;;5029018;28;20108;-66
2022/09/08 01:59:20;;;;;;;4.55;1.70;;;;;;;;;;5029466;28;20406;-67
2022/09/08 02:01:45;;;;;;;6.95;2.38;;;;;;;;;;5029447;28;20037;-66
2022/09/08 02:04:10;;;;;;;4.63;2.10;;;;;;;;;;5029211;28;20038;-66
2022/09/08 02:06:36;;;;;;;5.72;2.20;;;;;;;;;;5029119;28;20025;-66
2022/09/08 02:09:01;;;;;;;4.65;2.30;;;;;;;;;;5033972;28;20025;-66
2022/09/08 02:11:27;;;;;;;5.13;2.22;;;;;;;;;;5029256;28;20053;-66
2022/09/08 02:13:52;;;;;;;4.53;2.00;;;;;;;;;;5028694;28;20473;-66
2022/09/08 02:16:17;;;;;;;4.45;1.90;;;;;;;;;;5028889;28;20125;-66
2022/09/08 02:18:43;;;;;;;4.25;1.95;;;;;;;;;;5028497;28;20041;-66
2022/09/08 02:21:11;;;;;;;4.90;1.83;;;;;;;;;;5028747;28;20025;-66
2022/09/08 02:23:39;;;;;;;5.15;2.45;;;;;;;;;;5029342;28;20493;-66
2022/09/08 02:26:06;;;;;;;9.95;2.50;;;;;;;;;;5031169;28;20518;-66
2022/09/08 02:28:32;;;;;;;7.32;2.22;;;;;;;;;;5028158;28;20029;-66
2022/09/08 02:30:59;;;;;;;3.40;1.92;;;;;;;;;;5028722;28;20030;-66
2022/09/08 02:33:25;;;;;;;2.35;1.80;;;;;;;;;;5011040;28;20029;-66
2022/09/08 02:35:50;;;;;;;3.72;2.00;;;;;;;;;;5025459;28;20454;-66
2022/09/08 02:38:15;;;;;;;4.45;1.98;;;;;;;;;;5047866;28;20518;-66
2022/09/08 02:40:41;;;;;;;5.43;2.42;;;;;;;;;;5048642;28;20503;-66
2022/09/08 02:43:06;;;;;;;4.47;2.00;;;;;;;;;;5029521;28;20506;-67
2022/09/08 02:45:31;;;;;;;7.15;2.60;;;;;;;;;;5048356;28;20033;-66
2022/09/08 02:47:58;;;;;;;6.57;2.28;;;;;;;;;;5048321;28;20063;-66
2022/09/08 02:50:23;;;;;;;6.55;2.38;;;;;;;;;;5048949;28;20020;-66
2022/09/08 02:52:49;;;;;;;4.90;1.80;;;;;;;;;;5047591;28;20037;-66
2022/09/08 02:55:14;;;;;;;6.93;2.05;;;;;;;;;;5048263;28;20740;-66
2022/09/08 02:57:39;;;;;;;4.38;2.05;;;;;;;;;;5047991;28;20425;-66
2022/09/08 03:00:05;;;;;;;6.97;2.15;;;;;;;;;;5048096;28;20108;-66
2022/09/08 03:02:31;;;;;;;4.40;2.17;;;;;;;;;;5048584;28;20079;-66
2022/09/08 03:04:56;;;;;;;3.92;1.90;;;;;;;;;;5047782;28;20078;-66
2022/09/08 03:07:22;;;;;;;2.58;1.65;;;;;;;;;;5025982;28;20041;-66
2022/09/08 03:09:49;;;;;;;3.33;2.13;;;;;;;;;;5048207;28;20110;-66
2022/09/08 03:12:14;;;;;;;5.35;1.90;;;;;;;;;;5047462;28;20909;-66
2022/09/08 03:14:39;;;;;;;3.33;1.88;;;;;;;;;;5048053;28;20049;-66
2022/09/08 03:17:05;;;;;;;3.83;1.67;;;;;;;;;;5045853;28;20052;-66
2022/09/08 03:19:30;;;;;;;5.30;1.80;;;;;;;;;;5042237;28;20072;-66
2022/09/08 03:21:56;;;;;;;4.60;1.70;;;;;;;;;;5048265;28;20028;-66
2022/09/08 03:24:21;;;;;;;4.72;1.98;;;;;;;;;;5047606;28;20033;-66
2022/09/08 03:26:46;;;;;;;5.68;2.15;;;;;;;;;;5047244;28;20033;-66
2022/09/08 03:29:12;;;;;;;5.97;2.35;;;;;;;;;;5047473;28;20083;-66
2022/09/08 03:31:37;;;;;;;5.75;2.08;;;;;;;;;;5047620;28;20029;-66
2022/09/08 03:34:03;;;;;;;4.10;2.28;;;;;;;;;;5047072;28;20128;-66
2022/09/08 03:36:28;;;;;;;6.53;2.03;;;;;;;;;;5034446;28;20130;-66
2022/09/08 03:38:54;;;;;;;2.83;1.92;;;;;;;;;;5031580;28;20029;-66
2022/09/08 03:41:19;;;;;;;6.07;2.53;;;;;;;;;;5014705;28;20022;-66
2022/09/08 03:43:47;;;;;;;4.75;2.40;;;;;;;;;;5031109;28;20528;-66
2022/09/08 03:46:13;;;;;;;4.40;2.10;;;;;;;;;;5031990;28;20041;-66
2022/09/08 03:48:39;;;;;;;4.82;2.38;;;;;;;;;;5035754;28;20505;-66
2022/09/08 03:51:12;;;;;;;3.47;2.20;;;;;;;;;;5045499;28;20090;-66
2022/09/08 03:53:38;;;;;;;4.78;2.13;;;;;;;;;;5051900;28;20106;-66
2022/09/08 03:56:08;;;;;;;5.38;2.28;;;;;;;;;;5050945;28;20125;-66
2022/09/08 03:58:34;;;;;;;5.15;2.35;;;;;;;;;;5026682;28;20509;-66
2022/09/08 04:01:00;;;;;;;4.85;2.30;;;;;;;;;;5051687;28;20045;-66
2022/09/08 04:03:26;;;;;;;4.60;2.35;;;;;;;;;;5051487;28;20025;-67
2022/09/08 04:05:51;;;;;;;4.72;2.60;;;;;;;;;;5046025;28;20870;-67
2022/09/08 04:08:17;;;;;;;3.75;2.30;;;;;;;;;;5051587;28;20506;-67
2022/09/08 04:10:43;;;;;;;4.07;2.40;;;;;;;;;;5051219;28;20037;-67
2022/09/08 04:13:08;;;;;;;4.35;2.38;;;;;;;;;;5050911;28;20029;-67
2022/09/08 04:15:33;;;;;;;7.32;2.97;;;;;;;;;;5050946;28;20509;-67
2022/09/08 04:17:59;;;;;;;7.35;3.15;;;;;;;;;;5049950;28;20445;-66
2022/09/08 04:20:24;;;;;;;5.70;2.58;;;;;;;;;;5051297;28;20029;-67
2022/09/08 04:22:50;;;;;;;6.50;3.30;;;;;;;;;;5049343;28;20044;-66
2022/09/08 04:25:15;;;;;;;6.15;2.83;;;;;;;;;;5042800;28;20037;-67
2022/09/08 04:27:41;;;;;;;6.85;2.92;;;;;;;;;;5043313;28;21839;-67
2022/09/08 04:30:07;;;;;;;5.45;2.83;;;;;;;;;;5041007;28;20040;-67
2022/09/08 04:32:34;;;;;;;6.88;3.20;;;;;;;;;;5031839;28;20425;-67
2022/09/08 04:34:59;;;;;;;6.57;3.00;;;;;;;;;;5030996;28;20561;-67
2022/09/08 04:37:25;;;;;;;6.53;3.00;;;;;;;;;;5050937;28;20069;-67
2022/09/08 04:39:50;;;;;;;7.22;3.00;;;;;;;;;;5050376;28;20036;-67
2022/09/08 04:42:16;;;;;;;5.05;2.78;;;;;;;;;;5050557;28;20037;-67
2022/09/08 04:44:41;;;;;;;7.20;3.20;;;;;;;;;;5032745;28;20106;-67
2022/09/08 04:47:06;;;;;;;6.05;2.80;;;;;;;;;;5050601;28;20465;-67
2022/09/08 04:49:32;;;;;;;6.30;2.65;;;;;;;;;;5050050;28;20473;-66
2022/09/08 04:51:57;;;;;;;5.70;3.25;;;;;;;;;;5050436;28;20041;-67
2022/09/08 04:54:23;;;;;;;5.18;2.58;;;;;;;;;;5050091;28;20041;-67
2022/09/08 04:56:49;;;;;;;7.70;3.47;;;;;;;;;;5050429;28;20033;-67
2022/09/08 04:59:15;;;;;;;6.45;3.38;;;;;;;;;;5032413;28;20833;-67
2022/09/08 05:01:40;;;;;;;7.80;3.20;;;;;;;;;;5049209;28;20041;-66
2022/09/08 05:04:05;;;;;;;7.22;3.08;;;;;;;;;;5038509;28;20566;-67
2022/09/08 05:06:33;;;;;;;8.60;3.17;;;;;;;;;;5030057;28;20610;-67
2022/09/08 05:09:01;;;;;;;5.80;3.08;;;;;;;;;;5030414;28;20088;-66
2022/09/08 05:11:29;;;;;;;9.43;3.63;;;;;;;;;;5037156;28;20052;-67
2022/09/08 05:13:55;;;;;;;6.43;3.25;;;;;;;;;;5029843;28;20154;-66
2022/09/08 05:16:23;;;;;;;6.50;3.30;;;;;;;;;;5029904;28;20453;-67
2022/09/08 05:18:54;;;;;;;8.23;2.95;;;;;;;;;;5030007;28;20096;-67
2022/09/08 05:21:21;;;;;;;5.03;2.65;;;;;;;;;;5030258;28;20072;-67
2022/09/08 05:23:51;;;;;;;9.88;3.10;;;;;;;;;;5036998;28;20025;-67
2022/09/08 05:26:17;;;;;;;6.15;3.20;;;;;;;;;;5029677;28;20029;-67
2022/09/08 05:28:43;;;;;;;8.13;3.25;;;;;;;;;;5049758;28;20041;-67
2022/09/08 05:31:15;;;;;;;6.53;3.20;;;;;;;;;;5047624;28;20040;-67
2022/09/08 05:33:41;;;;;;;7.35;3.45;;;;;;;;;;5046371;28;20546;-66
2022/09/08 05:36:21;;;;;;;8.52;3.47;;;;;;;;;;5039640;28;20032;-66
2022/09/08 05:38:47;;;;;;;7.68;3.33;;;;;;;;;;5048768;28;20448;-67
2022/09/08 05:41:13;;;;;;;11.18;3.90;;;;;;;;;;5049292;28;20502;-67
2022/09/08 05:43:39;;;;;;;6.53;3.05;;;;;;;;;;5049488;28;20044;-67
2022/09/08 05:46:05;;;;;;;8.15;3.83;;;;;;;;;;5049455;28;20090;-67
2022/09/08 05:48:31;;;;;;;11.30;3.60;;;;;;;;;;5031675;28;20036;-67
2022/09/08 05:50:56;;;;;;;7.10;3.40;;;;;;;;;;5044096;28;20029;-66
2022/09/08 05:53:22;;;;;;;8.15;4.05;;;;;;;;;;5050045;28;20029;-67
2022/09/08 05:55:59;;;;;;;9.15;3.42;;;;;;;;;;5049079;28;20041;-67
2022/09/08 05:58:25;;;;;;;6.05;4.22;;;;;;;;;;5049180;28;20540;-67
2022/09/08 06:01:03;;;;;;;8.13;3.60;;;;;;;;;;5029717;28;20057;-67
2022/09/08 06:03:28;;;;;;;6.43;2.97;;;;;;;;;;5049304;28;20029;-67
2022/09/08 06:05:55;;;;;;;6.22;3.35;;;;;;;;;;5049408;28;20071;-66
2022/09/08 06:08:22;;;;;;;4.72;2.95;;;;;;;;;;5045884;28;20024;-67
2022/09/08 06:10:49;;;;;;;7.45;3.03;;;;;;;;;;5048957;28;20045;-67
2022/09/08 06:13:14;;;;;;;6.65;3.20;;;;;;;;;;5048920;28;20418;-67
2022/09/08 06:15:39;;;;;;;6.43;3.22;;;;;;;;;;5047945;28;20036;-67
2022/09/08 06:18:04;;;;;;;6.70;2.92;;;;;;;;;;5048147;28;20127;-67
2022/09/08 06:20:30;;;;;;;5.03;2.80;;;;;;;;;;5049511;28;20009;-67
2022/09/08 06:22:55;;;;;;;5.85;3.08;;;;;;;;;;5030870;28;20071;-67
2022/09/08 06:25:20;;;;;;;9.07;2.72;;;;;;;;;;5034932;28;20025;-67
2022/09/08 06:27:54;;;;;;;8.85;3.08;;;;;;;;;;5048338;28;20734;-67
2022/09/08 06:30:19;;;;;;;;;;;;;;;;;;5030751;28;20025;-67
2022/09/08 06:32:49;;;;;;;6.30;3.22;;;;;;;;;;5049152;28;19913;-67
2022/09/08 06:35:23;;;;;;;5.43;2.97;;;;;;;;;;5030353;28;20033;-67
2022/09/08 06:37:52;;;;;;;7.93;3.25;;;;;;;;;;5048202;28;20056;-67
2022/09/08 06:40:24;;;;;;;7.47;3.25;;;;;;;;;;5047076;28;20035;-67
2022/09/08 06:42:56;;;;;;;6.13;3.33;;;;;;;;;;5045171;28;20580;-67
2022/09/08 06:45:26;;;;;;;9.77;2.80;;;;;;;;;;5047386;28;20029;-67
2022/09/08 06:48:00;;;;;;;9.68;3.47;;;;;;;;;;5048095;28;20025;-66
2022/09/08 06:50:25;;;;;;;5.25;3.05;;;;;;;;;;5048115;28;20128;-66
2022/09/08 06:52:54;;;;;;;8.05;3.00;;;;;;;;;;5047543;28;20128;-67
2022/09/08 06:55:39;;;;;;;6.00;3.28;;;;;;;;;;5045470;28;20037;-66
2022/09/08 06:58:20;;;;;;;5.38;2.75;;;;;;;;;;5048011;28;20099;-66
2022/09/08 07:01:12;;;;;;;10.10;3.13;;;;;;;;;;5029156;28;20045;-66
2022/09/08 07:04:02;;;;;;;5.70;2.70;;;;;;;;;;5043214;28;20537;-66
2022/09/08 07:06:35;;;;;;;6.38;2.92;;;;;;;;;;5018284;28;20026;-66
2022/09/08 07:09:13;;;;;;;2.83;1.92;;;;;;;;;;5036175;28;20406;-66
2022/09/08 07:12:14;;;;;;;3.95;2.38;;;;;;;;;;5037167;28;20758;-66
2022/09/08 07:14:57;;;;;;;4.28;2.53;;;;;;;;;;5005242;28;20033;-66
2022/09/08 07:17:34;;;;;;;8.07;2.67;;;;;;;;;;5045736;28;20055;-66
2022/09/08 07:19:59;;;;;;;6.22;2.50;;;;;;;;;;5046534;28;20127;-66
2022/09/08 07:22:39;;;;;;;5.70;2.22;;;;;;;;;;5047444;28;20136;-66
2022/09/08 07:25:30;;;;;;;3.97;2.00;;;;;;;;;;5046946;28;20033;-66
2022/09/08 07:28:11;;;;;;;6.57;2.33;;;;;;;;;;5047619;28;20066;-66
2022/09/08 07:30:38;;;;;;;9.57;2.20;;;;;;;;;;5037115;28;20032;-65
2022/09/08 07:33:23;;;;;;;3.45;1.90;;;;;;;;;;5010243;28;20033;-66
2022/09/08 07:36:37;;;;;;;3.30;1.65;;;;;;;;;;5037305;28;20052;-64
2022/09/08 07:39:13;;;;;;;5.72;2.30;;;;;;;;;;4958275;28;20054;-65
2022/09/08 07:41:54;;;;;;;7.60;2.00;;;;;;;;;;4962391;28;20035;-65
2022/09/08 07:44:20;;;;;;;5.50;1.98;;;;;;;;;;5011902;28;20048;-66
2022/09/08 07:46:58;;;;;;;2.67;1.80;;;;;;;;;;5026564;28;20045;-66
2022/09/08 07:49:28;;;;;;;2.47;1.70;;;;;;;;;;5008807;28;20730;-66
2022/09/08 07:52:02;;;;;;;2.25;1.40;;;;;;;;;;5008904;28;20030;-66
2022/09/08 07:54:50;;;;;;;3.53;1.50;;;;;;;;;;5027709;28;20123;-66
2022/09/08 07:58:07;;;;;;;5.70;1.60;;;;;;;;;;5036278;28;20052;-66
2022/09/08 08:00:43;;;;;;;3.10;1.30;;;;;;;;;;5013715;28;20114;-66
2022/09/08 08:03:29;;;;;;;10.05;1.65;;;;;;;;;;5028053;28;20457;-67
2022/09/08 08:06:06;;;;;;;6.60;1.63;;;;;;;;;;5046225;28;20111;-65
2022/09/08 08:08:31;;;;;;;4.47;1.52;;;;;;;;;;5047316;28;20406;-67
2022/09/08 08:11:09;;;;;;;4.50;1.48;;;;;;;;;;5046438;28;20041;-66
2022/09/08 08:13:44;;;;;;;5.13;1.48;;;;;;;;;;5045964;28;20056;-66
2022/09/08 08:16:13;;;;;;;1.77;1.17;;;;;;;;;;5046013;28;20072;-67
2022/09/08 08:19:14;;;;;;;4.95;1.27;;;;;;;;;;5046223;28;20037;-66
2022/09/08 08:21:46;;;;;;;7.65;1.50;;;;;;;;;;5038623;28;20037;-66
2022/09/08 08:24:14;;;;;;;2.15;1.20;;;;;;;;;;5038659;28;20402;-67
2022/09/08 08:26:53;;;;;;;3.35;1.55;;;;;;;;;;5036878;28;20029;-64
2022/09/08 08:29:24;;;;;;;3.67;1.52;;;;;;;;;;5036387;28;20052;-66
2022/09/08 08:31:56;;;;;;;5.03;1.60;;;;;;;;;;5026493;28;20517;-66
2022/09/08 08:34:28;;;;;;;3.22;1.50;;;;;;;;;;5030122;28;20044;-66
2022/09/08 08:37:00;;;;;;;4.60;1.35;;;;;;;;;;5045952;28;20044;-66
2022/09/08 08:39:26;;;;;;;6.07;1.45;;;;;;;;;;5047701;28;20143;-66
2022/09/08 08:42:15;;;;;;;3.72;1.52;;;;;;;;;;5030749;28;20587;-66
2022/09/08 08:44:59;;;;;;;4.05;1.63;;;;;;;;;;5035069;28;20463;-66
2022/09/08 08:47:39;;;;;;;4.85;1.52;;;;;;;;;;5029553;28;20099;-66
2022/09/08 08:50:44;;;;;;;4.45;1.67;;;;;;;;;;5031904;28;20529;-65
2022/09/08 08:53:20;;;;;;;;;;;;;;;;;;5020531;28;20038;-65
2022/09/08 08:56:20;;;;;;;3.95;1.48;;;;;;;;;;5040492;28;19936;-66
2022/09/08 08:58:57;;;;;;;6.45;1.45;;;;;;;;;;5029086;28;20068;-66
2022/09/08 09:01:44;;;;;;;4.57;1.50;;;;;;;;;;5038154;28;20045;-66
2022/09/08 09:04:34;;;;;;;6.00;1.55;;;;;;;;;;5049210;28;20037;-66
2022/09/08 09:06:59;;;;;;;6.65;1.50;;;;;;;;;;5048419;28;20041;-66
2022/09/08 09:09:40;;;;;;;2.95;1.27;;;;;;;;;;5031459;28;20039;-66
2022/09/08 09:12:30;;;;;;;6.25;1.30;;;;;;;;;;5046998;28;20048;-65
2022/09/08 09:15:12;;;;;;;3.42;1.52;;;;;;;;;;5033953;28;20489;-66
2022/09/08 09:17:40;;;;;;;3.60;1.48;;;;;;;;;;5031627;28;20136;-67
2022/09/08 09:20:11;;;;;;;6.25;1.50;;;;;;;;;;5048695;28;20048;-66
2022/09/08 09:22:55;;;;;;;4.25;1.63;;;;;;;;;;5040141;28;20449;-66
2022/09/08 09:25:20;;;;;;;3.38;1.30;;;;;;;;;;5038553;28;20041;-66
2022/09/08 09:28:19;;;;;;;4.60;1.30;;;;;;;;;;5035542;28;20099;-66
2022/09/08 09:31:10;;;;;;;6.93;1.80;;;;;;;;;;5029367;28;20041;-66
2022/09/08 09:34:06;;;;;;;3.03;1.55;;;;;;;;;;5039450;28;20727;-66
2022/09/08 09:37:06;;;;;;;6.78;1.50;;;;;;;;;;5031860;28;20041;-66
2022/09/08 09:39:46;;;;;;;5.18;1.50;;;;;;;;;;5027875;28;20041;-66
2022/09/08 09:42:23;;;;;;;6.90;1.38;;;;;;;;;;5029853;28;20120;-66
2022/09/08 09:45:16;;;;;;;3.33;1.40;;;;;;;;;;5010508;28;20039;-66
2022/09/08 09:48:00;;;;;;;8.18;1.80;;;;;;;;;;5031945;28;20129;-66
2022/09/08 09:50:47;;;;;;;3.30;1.40;;;;;;;;;;5029341;28;20591;-66
2022/09/08 09:53:31;;;;;;;2.90;1.50;;;;;;;;;;5045782;28;20040;-66
2022/09/08 09:56:15;;;;;;;;;;;;;;;;;;5043057;28;20068;-66
2022/09/08 09:58:43;;;;;;;;;;;;;;;;;;5037539;28;19929;-65
2022/09/08 10:01:38;;;;;;;5.38;1.40;;;;;;;;;;5031568;28;19921;-66
2022/09/08 10:04:38;;;;;;;4.97;1.35;;;;;;;;;;5037699;28;20067;-66
2022/09/08 10:07:09;;;;;;;4.25;1.55;;;;;;;;;;5044023;28;20940;-66
2022/09/08 10:10:04;;;;;;;3.13;1.48;;;;;;;;;;5044359;28;20032;-66
2022/09/08 10:12:48;;;;;;;5.47;1.50;;;;;;;;;;5036737;28;20099;-67
2022/09/08 10:15:53;;;;;;;2.38;1.40;;;;;;;;;;5032418;28;20067;-66
2022/09/08 10:18:37;;;;;;;3.65;1.58;;;;;;;;;;5043991;28;20065;-66
2022/09/08 10:21:02;;;;;;;4.40;1.73;;;;;;;;;;5040459;28;20025;-66
2022/09/08 10:23:59;;;;;;;7.35;1.75;;;;;;;;;;5041079;28;20027;-66
2022/09/08 10:27:02;;;;;;;6.72;2.40;;;;;;;;;;5033823;28;20115;-66
2022/09/08 10:29:58;;;;;;;2.30;1.15;;;;;;;;;;5030825;28;20029;-66
2022/09/08 10:33:04;;;;;;;5.30;1.45;;;;;;;;;;5020114;28;20095;-66
2022/09/08 10:35:47;;;;;;;5.32;1.63;;;;;;;;;;5033441;28;20434;-66
2022/09/08 10:38:47;;;;;;;3.97;1.90;;;;;;;;;;5043909;28;20040;-66
2022/09/08 10:41:30;;;;;;;4.65;1.60;;;;;;;;;;5046983;28;20128;-67
2022/09/08 10:44:06;;;;;;;3.63;1.40;;;;;;;;;;5045767;28;20403;-67
2022/09/08 10:47:04;;;;;;;3.78;1.67;;;;;;;;;;5047101;28;20036;-67
2022/09/08 10:50:09;;;;;;;6.55;1.80;;;;;;;;;;5012510;28;20048;-67
2022/09/08 10:52:49;;;;;;;2.33;1.55;;;;;;;;;;5038899;28;20048;-67
2022/09/08 10:55:27;;;;;;;4.72;1.83;;;;;;;;;;5046729;28;20056;-67
2022/09/08 10:58:18;;;;;;;4.10;1.60;;;;;;;;;;5047545;28;20414;-66
2022/09/08 11:01:06;;;;;;;4.00;1.55;;;;;;;;;;5047160;28;20124;-66
2022/09/08 11:04:02;;;;;;;4.90;1.42;;;;;;;;;;5043026;28;20067;-66
2022/09/08 11:07:05;;;;;;;5.25;1.38;;;;;;;;;;5040010;28;20036;-66
2022/09/08 11:09:49;;;;;;;4.05;1.70;;;;;;;;;;5047286;28;20087;-66
2022/09/08 11:12:41;;;;;;;6.07;2.20;;;;;;;;;;5047112;28;20037;-67
2022/09/08 11:15:44;;;;;;;6.13;1.50;;;;;;;;;;5041254;28;20115;-66
2022/09/08 11:18:28;;;;;;;4.18;1.38;;;;;;;;;;5026793;28;20029;-66
2022/09/08 11:21:02;;;;;;;5.03;1.20;;;;;;;;;;5029048;28;20030;-66
2022/09/08 11:24:00;;;;;;;4.22;1.30;;;;;;;;;;5029876;28;20021;-66
2022/09/08 11:26:44;;;;;;;4.40;1.50;;;;;;;;;;5038575;28;20495;-67
2022/09/08 11:29:13;;;;;;;5.50;1.48;;;;;;;;;;5045138;28;20082;-67
2022/09/08 11:31:50;;;;;;;4.63;1.25;;;;;;;;;;5044843;28;20033;-67
2022/09/08 11:34:58;;;;;;;5.80;1.45;;;;;;;;;;5045358;28;20041;-66
2022/09/08 11:38:00;;;;;;;3.83;1.30;;;;;;;;;;5045145;28;20056;-67
2022/09/08 11:40:44;;;;;;;4.05;1.55;;;;;;;;;;5030110;28;20490;-67
2022/09/08 11:43:31;;;;;;;4.57;1.05;;;;;;;;;;5045016;28;20040;-67
2022/09/08 11:46:17;;;;;;;2.58;1.10;;;;;;;;;;5043984;28;20044;-67
2022/09/08 11:48:56;;;;;;;3.60;0.95;;;;;;;;;;5044116;28;20033;-67
2022/09/08 11:51:33;;;;;;;2.35;1.15;;;;;;;;;;5045978;28;20049;-67
2022/09/08 11:54:10;;;;;;;2.55;1.20;;;;;;;;;;5045007;28;20062;-66
2022/09/08 11:57:04;;;;;;;3.88;1.20;;;;;;;;;;5045405;28;20029;-67
2022/09/08 11:59:45;;;;;;;;;;;;;;;;;;5044557;28;20116;-67
2022/09/08 12:02:20;;;;;;;5.07;1.80;;;;;;;;;;5031322;28;19920;-67
2022/09/08 12:05:07;;;;;;;2.38;1.30;;;;;;;;;;5049289;28;20036;-68
2022/09/08 12:07:47;;;;;;;2.70;1.30;;;;;;;;;;5048694;28;20037;-68
2022/09/08 12:10:30;;;;;;;6.35;1.70;;;;;;;;;;5028481;28;20112;-68
2022/09/08 12:13:06;;;;;;;4.40;1.27;;;;;;;;;;5029439;28;20026;-68
2022/09/08 12:15:43;;;;;;;4.40;1.75;;;;;;;;;;5028404;28;20519;-67
2022/09/08 12:18:17;;;;;;;3.80;1.60;;;;;;;;;;5025144;28;20445;-68
2022/09/08 12:21:07;;;;;;;3.85;1.83;;;;;;;;;;5025902;28;20410;-67
2022/09/08 12:23:52;;;;;;;3.97;1.50;;;;;;;;;;5011538;28;20040;-68
2022/09/08 12:26:36;;;;;;;4.40;1.70;;;;;;;;;;4977702;28;20043;-68
2022/09/08 12:29:39;;;;;;;6.90;1.52;;;;;;;;;;4969449;28;20100;-67
2022/09/08 12:32:46;;;;;;;7.63;2.80;;;;;;;;;;4968928;28;20059;-68
2022/09/08 12:35:22;;;;;;;3.53;1.58;;;;;;;;;;4998615;28;20121;-66
2022/09/08 12:37:53;;;;;;;4.45;1.30;;;;;;;;;;5044565;28;20040;-68
2022/09/08 12:40:34;;;;;;;5.97;1.38;;;;;;;;;;5048731;28;20033;-66
2022/09/08 12:43:11;;;;;;;6.68;1.52;;;;;;;;;;5049318;28;20640;-66
2022/09/08 12:46:01;;;;;;;9.43;1.60;;;;;;;;;;5039244;28;20080;-69
2022/09/08 12:48:48;;;;;;;3.92;1.30;;;;;;;;;;5037566;28;20101;-66
2022/09/08 12:51:36;;;;;;;5.50;1.40;;;;;;;;;;5036664;28;20068;-65
2022/09/08 12:54:29;;;;;;;4.63;1.30;;;;;;;;;;5042412;28;20053;-64
2022/09/08 12:57:00;;;;;;;4.75;1.40;;;;;;;;;;5048296;28;20041;-64
2022/09/08 12:59:38;;;;;;;2.28;1.15;;;;;;;;;;5050019;28;20036;-66
2022/09/08 13:02:07;;;;;;;2.65;1.08;;;;;;;;;;5047884;28;20059;-66
2022/09/08 13:04:44;;;;;;;2.13;1.02;;;;;;;;;;5046226;28;20041;-67
2022/09/08 13:07:47;;;;;;;4.15;1.40;;;;;;;;;;5040544;28;20037;-67
2022/09/08 13:10:16;;;;;;;5.03;1.63;;;;;;;;;;5045806;28;20090;-70
2022/09/08 13:13:30;;;;;;;4.47;1.48;;;;;;;;;;5044753;28;20037;-68
2022/09/08 13:16:30;;;;;;;5.35;2.00;;;;;;;;;;4974649;28;20047;-70
2022/09/08 13:19:10;;;;;;;3.20;1.30;;;;;;;;;;4987443;28;20108;-70
2022/09/08 13:21:38;;;;;;;1.25;1.15;;;;;;;;;;5015194;28;20130;-66
2022/09/08 13:24:04;;;;;;;3.70;1.30;;;;;;;;;;5017513;28;20136;-67
2022/09/08 13:26:41;;;;;;;3.55;1.40;;;;;;;;;;5027570;28;20038;-66
2022/09/08 13:29:18;;;;;;;7.55;1.52;;;;;;;;;;5032054;28;20107;-69
2022/09/08 13:32:10;;;;;;;5.38;1.73;;;;;;;;;;5042269;28;20048;-66
2022/09/08 13:35:00;;;;;;;5.00;1.70;;;;;;;;;;5044183;28;20158;-66
2022/09/08 13:37:40;;;;;;;4.88;1.73;;;;;;;;;;5045489;28;20063;-66
2022/09/08 13:40:09;;;;;;;5.50;2.00;;;;;;;;;;5044954;28;20080;-65
2022/09/08 13:42:47;;;;;;;2.72;1.50;;;;;;;;;;5008727;28;20419;-66
2022/09/08 13:45:41;;;;;;;5.82;1.52;;;;;;;;;;5025797;28;20055;-66
2022/09/08 13:48:25;;;;;;;2.80;1.40;;;;;;;;;;5040148;28;20035;-65
2022/09/08 13:51:30;;;;;;;3.40;1.50;;;;;;;;;;5043551;28;20494;-66
2022/09/08 13:54:30;;;;;;;6.57;2.08;;;;;;;;;;5044726;28;20091;-66
2022/09/08 13:56:59;;;;;;;8.40;2.30;;;;;;;;;;5027509;28;20028;-65
2022/09/08 13:59:57;;;;;;;5.15;1.80;;;;;;;;;;5042248;28;20029;-66
2022/09/08 14:02:41;;;;;;;4.63;1.60;;;;;;;;;;5037740;28;20037;-66
2022/09/08 14:05:28;;;;;;;3.83;1.70;;;;;;;;;;5043866;28;20139;-66
2022/09/08 14:08:04;;;;;;;5.47;1.95;;;;;;;;;;5045792;28;20395;-66
2022/09/08 14:10:41;;;;;;;4.50;1.83;;;;;;;;;;5045726;28;20481;-66
2022/09/08 14:13:13;;;;;;;5.28;1.67;;;;;;;;;;5044529;28;20041;-66
2022/09/08 14:15:48;;;;;;;2.17;1.40;;;;;;;;;;5027448;28;20041;-66
2022/09/08 14:18:52;;;;;;;1.92;1.60;;;;;;;;;;5044200;28;20139;-66
2022/09/08 14:21:32;;;;;;;7.85;1.80;;;;;;;;;;5019155;28;20033;-66
2022/09/08 14:24:25;;;;;;;4.18;1.70;;;;;;;;;;5018986;28;20401;-68
2022/09/08 14:26:56;;;;;;;7.95;2.10;;;;;;;;;;5024234;28;20044;-70
2022/09/08 14:29:31;;;;;;;4.28;1.50;;;;;;;;;;5035969;28;20092;-70
2022/09/08 14:32:18;;;;;;;6.40;1.73;;;;;;;;;;5044688;28;20069;-71
2022/09/08 14:35:04;;;;;;;5.68;1.55;;;;;;;;;;5026938;28;20098;-71
2022/09/08 14:37:31;;;;;;;5.43;1.58;;;;;;;;;;5045801;28;20055;-69
2022/09/08 14:40:20;;;;;;;5.63;1.38;;;;;;;;;;5040279;28;20048;-69
2022/09/08 14:43:15;;;;;;;4.22;1.40;;;;;;;;;;5033459;28;20024;-68
2022/09/08 14:46:05;;;;;;;4.72;1.88;;;;;;;;;;5026625;28;20037;-65
2022/09/08 14:48:59;;;;;;;4.22;1.50;;;;;;;;;;5025120;28;20530;-66
2022/09/08 14:51:33;;;;;;;;;;;;;;;;;;5007823;28;20040;-66
2022/09/08 14:54:06;;;;;;;3.30;1.35;;;;;;;;;;5013842;28;19953;-66
2022/09/08 14:56:38;;;;;;;3.13;1.20;;;;;;;;;;5008456;28;20044;-66
2022/09/08 14:59:26;;;;;;;4.32;1.15;;;;;;;;;;5022859;28;20289;-66
2022/09/08 15:02:00;;;;;;;4.70;1.50;;;;;;;;;;5024259;28;20076;-66
2022/09/08 15:04:27;;;;;;;;;;;;;;;;;;5029352;28;20094;-66
2022/09/08 15:07:11;;;;;;;3.75;1.70;;;;;;;;;;5021366;28;19987;-66
2022/09/08 15:10:06;;;;;;;8.45;2.28;;;;;;;;;;5022179;28;20061;-66
2022/09/08 15:12:49;;;;;;;7.53;2.13;;;;;;;;;;4997803;28;20088;-66
2022/09/08 15:15:37;;;;;;;;;;;;;;;;;;5023212;28;20434;-65
2022/09/08 15:18:18;;;;;;;11.55;2.15;;;;;;;;;;4993916;28;19952;-64
2022/09/08 15:20:49;;;;;;;5.35;2.00;;;;;;;;;;5018319;28;20028;-66
2022/09/08 15:23:23;;;;;;;6.60;2.45;;;;;;;;;;5044404;28;20039;-68
2022/09/08 15:26:07;;;;;;;6.88;2.25;;;;;;;;;;5042999;28;20553;-66
2022/09/08 15:28:40;;;;;;;6.80;2.50;;;;;;;;;;5025937;28;20581;-69
2022/09/08 15:31:32;;;;;;;6.60;2.25;;;;;;;;;;5023688;28;20087;-69
2022/09/08 15:34:08;;;;;;;7.60;2.15;;;;;;;;;;5007829;28;21478;-68
2022/09/08 15:37:02;;;;;;;7.10;2.00;;;;;;;;;;5044640;28;20120;-72
2022/09/08 15:39:33;;;;;;;3.25;1.80;;;;;;;;;;5032548;28;20132;-69
2022/09/08 15:42:23;;;;;;;5.50;1.73;;;;;;;;;;5009343;28;20406;-70
2022/09/08 15:44:51;;;;;;;4.28;1.60;;;;;;;;;;5018047;28;20131;-79